CheckWX is a tool to help pilots better visualize weather data.  It is not intended as a substitute for an official pre-flight weather briefing.

18:54:17 UTC

KOPF METAR
Miami-Opa Locka Executive Airport
Miami, Florida, USA
Current

1 hour ago

KOPF 171753Z 17015KT 10SM CLR 28/19 A3002 RMK AO2 SLP167 T02830189 10289 20194 58009
Observed
Feb-17 @ 17:53 UTC
Wind
  • 170° at 15 KTS
Visibility
10 SM
Flight Rules
VFR
Cloud Levels
  • Clear skies
Temperature
28°C / 82°F
Dewpoint
19°C / 66°F
Humidity
58%
Altimeter
30.02" Hg
Pressure
1016.7 hPa
Previous

2 hours ago

KOPF 171653Z 16011KT 10SM FEW033 28/19 A3004 RMK AO2 SLP172 T02830189
Observed
Feb-17 @ 16:53 UTC
Wind
  • 160° at 11 KTS
Visibility
10 SM
Flight Rules
VFR
Cloud Levels
  • Few at 3,300' AGL
Temperature
28°C / 82°F
Dewpoint
19°C / 66°F
Humidity
58%
Altimeter
30.04" Hg
Pressure
1017.2 hPa
Previous

3 hours ago

KOPF 171553Z 18012KT 10SM SCT029 27/19 A3005 RMK AO2 SLP176 T02720194
Observed
Feb-17 @ 15:53 UTC
Wind
  • 180° at 12 KTS
Visibility
10 SM
Flight Rules
VFR
Cloud Levels
  • Scattered at 2,900' AGL
Temperature
27°C / 81°F
Dewpoint
19°C / 66°F
Humidity
62%
Altimeter
30.05" Hg
Pressure
1017.6 hPa